sensor_id;sensor_type;location;lat;lon;timestamp;P1;durP1;ratioP1;P2;durP2;ratioP2
9140;SDS011;46330;50.822;7.126;2023-05-10T00:00:12;8.25;;;4.55;;
9140;SDS011;46330;50.822;7.126;2023-05-10T00:02:42;5.35;;;3.97;;
9140;SDS011;46330;50.822;7.126;2023-05-10T00:05:11;5.75;;;4.35;;
9140;SDS011;46330;50.822;7.126;2023-05-10T00:07:39;6.47;;;4.60;;
9140;SDS011;46330;50.822;7.126;2023-05-10T00:10:10;7.38;;;5.03;;
9140;SDS011;46330;50.822;7.126;2023-05-10T00:12:39;7.80;;;5.13;;
9140;SDS011;46330;50.822;7.126;2023-05-10T00:15:07;6.28;;;4.93;;
9140;SDS011;46330;50.822;7.126;2023-05-10T00:17:36;8.20;;;5.18;;
9140;SDS011;46330;50.822;7.126;2023-05-10T00:20:04;8.10;;;5.15;;
9140;SDS011;46330;50.822;7.126;2023-05-10T00:22:34;7.82;;;5.35;;
9140;SDS011;46330;50.822;7.126;2023-05-10T00:25:03;7.38;;;5.20;;
9140;SDS011;46330;50.822;7.126;2023-05-10T00:27:31;8.20;;;5.15;;
9140;SDS011;46330;50.822;7.126;2023-05-10T00:29:59;7.00;;;5.13;;
9140;SDS011;46330;50.822;7.126;2023-05-10T00:32:28;7.80;;;5.18;;
9140;SDS011;46330;50.822;7.126;2023-05-10T00:34:56;8.35;;;5.72;;
9140;SDS011;46330;50.822;7.126;2023-05-10T00:37:24;7.97;;;5.18;;
9140;SDS011;46330;50.822;7.126;2023-05-10T00:39:53;7.10;;;5.10;;
9140;SDS011;46330;50.822;7.126;2023-05-10T00:42:21;7.50;;;4.97;;
9140;SDS011;46330;50.822;7.126;2023-05-10T00:44:52;10.52;;;4.90;;
9140;SDS011;46330;50.822;7.126;2023-05-10T00:47:20;6.82;;;4.82;;
9140;SDS011;46330;50.822;7.126;2023-05-10T00:49:48;7.57;;;5.10;;
9140;SDS011;46330;50.822;7.126;2023-05-10T00:52:16;8.20;;;4.68;;
9140;SDS011;46330;50.822;7.126;2023-05-10T00:54:44;6.72;;;4.88;;
9140;SDS011;46330;50.822;7.126;2023-05-10T00:57:13;6.10;;;4.55;;
9140;SDS011;46330;50.822;7.126;2023-05-10T00:59:41;6.28;;;4.45;;
9140;SDS011;46330;50.822;7.126;2023-05-10T01:02:10;8.82;;;4.20;;
9140;SDS011;46330;50.822;7.126;2023-05-10T01:04:39;5.45;;;4.03;;
9140;SDS011;46330;50.822;7.126;2023-05-10T01:07:08;5.65;;;4.03;;
9140;SDS011;46330;50.822;7.126;2023-05-10T01:09:36;5.18;;;3.92;;
9140;SDS011;46330;50.822;7.126;2023-05-10T01:12:04;5.72;;;4.10;;
9140;SDS011;46330;50.822;7.126;2023-05-10T01:14:35;4.75;;;3.70;;
9140;SDS011;46330;50.822;7.126;2023-05-10T01:17:05;6.53;;;3.60;;
9140;SDS011;46330;50.822;7.126;2023-05-10T01:19:35;9.65;;;4.68;;
9140;SDS011;46330;50.822;7.126;2023-05-10T01:22:06;8.98;;;4.70;;
9140;SDS011;46330;50.822;7.126;2023-05-10T01:24:59;6.00;;;4.57;;
9140;SDS011;46330;50.822;7.126;2023-05-10T01:27:51;9.60;;;4.18;;
9140;SDS011;46330;50.822;7.126;2023-05-10T01:30:40;6.60;;;3.78;;
9140;SDS011;46330;50.822;7.126;2023-05-10T01:33:37;6.15;;;4.10;;
9140;SDS011;46330;50.822;7.126;2023-05-10T01:36:12;5.15;;;3.85;;
9140;SDS011;46330;50.822;7.126;2023-05-10T01:38:53;5.05;;;3.75;;
9140;SDS011;46330;50.822;7.126;2023-05-10T01:41:30;5.75;;;3.70;;
9140;SDS011;46330;50.822;7.126;2023-05-10T01:44:09;5.78;;;3.78;;
9140;SDS011;46330;50.822;7.126;2023-05-10T01:46:46;4.75;;;3.60;;
9140;SDS011;46330;50.822;7.126;2023-05-10T01:49:20;4.72;;;3.67;;
9140;SDS011;46330;50.822;7.126;2023-05-10T01:51:53;6.43;;;4.18;;
9140;SDS011;46330;50.822;7.126;2023-05-10T01:54:25;6.18;;;3.90;;
9140;SDS011;46330;50.822;7.126;2023-05-10T01:56:56;6.28;;;3.33;;
9140;SDS011;46330;50.822;7.126;2023-05-10T01:59:31;4.03;;;3.30;;
9140;SDS011;46330;50.822;7.126;2023-05-10T02:02:05;4.13;;;3.30;;
9140;SDS011;46330;50.822;7.126;2023-05-10T02:04:39;3.83;;;2.97;;
9140;SDS011;46330;50.822;7.126;2023-05-10T02:07:08;3.33;;;2.97;;
9140;SDS011;46330;50.822;7.126;2023-05-10T02:09:38;3.80;;;2.72;;
9140;SDS011;46330;50.822;7.126;2023-05-10T02:12:06;4.22;;;2.58;;
9140;SDS011;46330;50.822;7.126;2023-05-10T02:14:36;4.20;;;2.45;;
9140;SDS011;46330;50.822;7.126;2023-05-10T02:17:05;3.30;;;2.63;;
9140;SDS011;46330;50.822;7.126;2023-05-10T02:19:36;4.05;;;2.42;;
9140;SDS011;46330;50.822;7.126;2023-05-10T02:22:07;4.30;;;2.42;;
9140;SDS011;46330;50.822;7.126;2023-05-10T02:24:37;2.72;;;2.38;;
9140;SDS011;46330;50.822;7.126;2023-05-10T02:27:07;3.50;;;2.45;;
9140;SDS011;46330;50.822;7.126;2023-05-10T02:29:37;2.85;;;2.33;;
9140;SDS011;46330;50.822;7.126;2023-05-10T02:32:06;4.82;;;2.60;;
9140;SDS011;46330;50.822;7.126;2023-05-10T02:34:36;5.07;;;2.70;;
9140;SDS011;46330;50.822;7.126;2023-05-10T02:37:07;3.63;;;2.70;;
9140;SDS011;46330;50.822;7.126;2023-05-10T02:39:36;3.38;;;2.60;;
9140;SDS011;46330;50.822;7.126;2023-05-10T02:42:10;3.25;;;2.50;;
9140;SDS011;46330;50.822;7.126;2023-05-10T02:44:45;3.75;;;2.30;;
9140;SDS011;46330;50.822;7.126;2023-05-10T02:47:16;5.07;;;2.45;;
9140;SDS011;46330;50.822;7.126;2023-05-10T02:49:45;3.55;;;2.78;;
9140;SDS011;46330;50.822;7.126;2023-05-10T02:52:15;3.78;;;2.90;;
9140;SDS011;46330;50.822;7.126;2023-05-10T02:54:54;4.20;;;2.83;;
9140;SDS011;46330;50.822;7.126;2023-05-10T02:57:26;3.88;;;2.70;;
9140;SDS011;46330;50.822;7.126;2023-05-10T02:59:57;3.45;;;2.70;;
9140;SDS011;46330;50.822;7.126;2023-05-10T03:02:26;5.13;;;3.25;;
9140;SDS011;46330;50.822;7.126;2023-05-10T03:04:56;7.97;;;3.10;;
9140;SDS011;46330;50.822;7.126;2023-05-10T03:07:26;5.10;;;3.40;;
9140;SDS011;46330;50.822;7.126;2023-05-10T03:09:54;5.60;;;3.10;;
9140;SDS011;46330;50.822;7.126;2023-05-10T03:12:25;6.15;;;3.47;;
9140;SDS011;46330;50.822;7.126;2023-05-10T03:15:00;7.22;;;3.78;;
9140;SDS011;46330;50.822;7.126;2023-05-10T03:17:40;5.60;;;3.60;;
9140;SDS011;46330;50.822;7.126;2023-05-10T03:20:16;8.23;;;5.10;;
9140;SDS011;46330;50.822;7.126;2023-05-10T03:22:51;6.22;;;4.20;;
9140;SDS011;46330;50.822;7.126;2023-05-10T03:25:23;9.43;;;5.18;;
9140;SDS011;46330;50.822;7.126;2023-05-10T03:27:52;8.93;;;5.38;;
9140;SDS011;46330;50.822;7.126;2023-05-10T03:30:22;11.80;;;5.30;;
9140;SDS011;46330;50.822;7.126;2023-05-10T03:32:51;12.07;;;6.00;;
9140;SDS011;46330;50.822;7.126;2023-05-10T03:35:19;9.93;;;6.28;;
9140;SDS011;46330;50.822;7.126;2023-05-10T03:37:48;12.60;;;7.95;;
9140;SDS011;46330;50.822;7.126;2023-05-10T03:40:17;11.85;;;6.90;;
9140;SDS011;46330;50.822;7.126;2023-05-10T03:42:46;12.07;;;7.10;;
9140;SDS011;46330;50.822;7.126;2023-05-10T03:45:14;12.23;;;7.28;;
9140;SDS011;46330;50.822;7.126;2023-05-10T03:47:42;12.60;;;7.25;;
9140;SDS011;46330;50.822;7.126;2023-05-10T03:50:10;12.23;;;7.10;;
9140;SDS011;46330;50.822;7.126;2023-05-10T03:52:38;15.13;;;8.63;;
9140;SDS011;46330;50.822;7.126;2023-05-10T03:55:06;17.27;;;10.00;;
9140;SDS011;46330;50.822;7.126;2023-05-10T03:57:36;17.15;;;10.25;;
9140;SDS011;46330;50.822;7.126;2023-05-10T04:00:05;18.48;;;10.48;;
9140;SDS011;46330;50.822;7.126;2023-05-10T04:02:41;20.10;;;10.82;;
9140;SDS011;46330;50.822;7.126;2023-05-10T04:05:16;19.60;;;10.57;;
9140;SDS011;46330;50.822;7.126;2023-05-10T04:07:44;17.48;;;9.63;;
9140;SDS011;46330;50.822;7.126;2023-05-10T04:10:13;17.48;;;9.38;;
9140;SDS011;46330;50.822;7.126;2023-05-10T04:12:44;17.50;;;9.77;;
9140;SDS011;46330;50.822;7.126;2023-05-10T04:15:12;20.92;;;10.05;;
9140;SDS011;46330;50.822;7.126;2023-05-10T04:17:40;14.77;;;9.70;;
9140;SDS011;46330;50.822;7.126;2023-05-10T04:20:08;17.65;;;10.20;;
9140;SDS011;46330;50.822;7.126;2023-05-10T04:22:37;18.95;;;10.13;;
9140;SDS011;46330;50.822;7.126;2023-05-10T04:25:05;20.13;;;10.90;;
9140;SDS011;46330;50.822;7.126;2023-05-10T04:27:34;20.73;;;12.18;;
9140;SDS011;46330;50.822;7.126;2023-05-10T04:30:04;16.75;;;10.15;;
9140;SDS011;46330;50.822;7.126;2023-05-10T04:32:33;20.63;;;10.27;;
9140;SDS011;46330;50.822;7.126;2023-05-10T04:35:01;19.20;;;10.10;;
9140;SDS011;46330;50.822;7.126;2023-05-10T04:37:29;19.30;;;10.75;;
9140;SDS011;46330;50.822;7.126;2023-05-10T04:39:57;19.80;;;10.82;;
9140;SDS011;46330;50.822;7.126;2023-05-10T04:42:26;19.60;;;10.73;;
9140;SDS011;46330;50.822;7.126;2023-05-10T04:44:54;19.38;;;11.35;;
9140;SDS011;46330;50.822;7.126;2023-05-10T04:47:23;20.00;;;11.60;;
9140;SDS011;46330;50.822;7.126;2023-05-10T04:49:51;22.00;;;11.63;;
9140;SDS011;46330;50.822;7.126;2023-05-10T04:52:19;22.05;;;11.95;;
9140;SDS011;46330;50.822;7.126;2023-05-10T04:54:47;21.05;;;11.43;;
9140;SDS011;46330;50.822;7.126;2023-05-10T04:57:15;19.55;;;11.35;;
9140;SDS011;46330;50.822;7.126;2023-05-10T04:59:43;20.20;;;11.52;;
9140;SDS011;46330;50.822;7.126;2023-05-10T05:02:11;20.35;;;11.90;;
9140;SDS011;46330;50.822;7.126;2023-05-10T05:04:41;22.13;;;11.95;;
9140;SDS011;46330;50.822;7.126;2023-05-10T05:07:09;22.23;;;13.02;;
9140;SDS011;46330;50.822;7.126;2023-05-10T05:09:37;20.00;;;11.35;;
9140;SDS011;46330;50.822;7.126;2023-05-10T05:12:05;24.52;;;11.93;;
9140;SDS011;46330;50.822;7.126;2023-05-10T05:14:33;21.30;;;11.45;;
9140;SDS011;46330;50.822;7.126;2023-05-10T05:17:01;19.58;;;11.65;;
9140;SDS011;46330;50.822;7.126;2023-05-10T05:19:30;24.13;;;12.05;;
9140;SDS011;46330;50.822;7.126;2023-05-10T05:22:00;23.20;;;12.15;;
9140;SDS011;46330;50.822;7.126;2023-05-10T05:24:28;19.98;;;11.98;;
9140;SDS011;46330;50.822;7.126;2023-05-10T05:26:56;20.58;;;11.95;;
9140;SDS011;46330;50.822;7.126;2023-05-10T05:29:24;20.75;;;12.32;;
9140;SDS011;46330;50.822;7.126;2023-05-10T05:31:52;19.33;;;12.20;;
9140;SDS011;46330;50.822;7.126;2023-05-10T05:34:21;21.05;;;12.30;;
9140;SDS011;46330;50.822;7.126;2023-05-10T05:36:49;20.10;;;12.50;;
9140;SDS011;46330;50.822;7.126;2023-05-10T05:39:19;25.30;;;12.85;;
9140;SDS011;46330;50.822;7.126;2023-05-10T05:41:47;21.15;;;12.77;;
9140;SDS011;46330;50.822;7.126;2023-05-10T05:44:15;19.52;;;12.85;;
9140;SDS011;46330;50.822;7.126;2023-05-10T05:46:43;22.17;;;13.43;;
9140;SDS011;46330;50.822;7.126;2023-05-10T05:49:11;24.25;;;13.05;;
9140;SDS011;46330;50.822;7.126;2023-05-10T05:51:39;21.20;;;13.15;;
9140;SDS011;46330;50.822;7.126;2023-05-10T05:54:22;25.00;;;13.98;;
9140;SDS011;46330;50.822;7.126;2023-05-10T05:56:53;21.70;;;13.27;;
9140;SDS011;46330;50.822;7.126;2023-05-10T05:59:21;20.70;;;13.55;;
9140;SDS011;46330;50.822;7.126;2023-05-10T06:01:50;26.83;;;14.10;;
9140;SDS011;46330;50.822;7.126;2023-05-10T06:04:18;23.00;;;13.27;;
9140;SDS011;46330;50.822;7.126;2023-05-10T06:06:47;19.98;;;12.57;;
9140;SDS011;46330;50.822;7.126;2023-05-10T06:09:15;20.67;;;13.38;;
9140;SDS011;46330;50.822;7.126;2023-05-10T06:11:45;18.40;;;12.63;;
9140;SDS011;46330;50.822;7.126;2023-05-10T06:14:13;22.25;;;12.85;;
9140;SDS011;46330;50.822;7.126;2023-05-10T06:16:41;19.65;;;13.20;;
9140;SDS011;46330;50.822;7.126;2023-05-10T06:19:09;19.58;;;13.25;;
9140;SDS011;46330;50.822;7.126;2023-05-10T06:21:37;20.65;;;13.40;;
9140;SDS011;46330;50.822;7.126;2023-05-10T06:24:05;20.63;;;12.55;;
9140;SDS011;46330;50.822;7.126;2023-05-10T06:26:34;21.75;;;12.52;;
9140;SDS011;46330;50.822;7.126;2023-05-10T06:29:03;16.48;;;10.65;;
9140;SDS011;46330;50.822;7.126;2023-05-10T06:31:31;21.30;;;14.23;;
9140;SDS011;46330;50.822;7.126;2023-05-10T06:33:59;19.30;;;11.20;;
9140;SDS011;46330;50.822;7.126;2023-05-10T06:36:27;19.73;;;11.55;;
9140;SDS011;46330;50.822;7.126;2023-05-10T06:38:56;16.25;;;10.70;;
9140;SDS011;46330;50.822;7.126;2023-05-10T06:41:24;15.77;;;9.48;;
9140;SDS011;46330;50.822;7.126;2023-05-10T06:43:52;17.55;;;10.02;;
9140;SDS011;46330;50.822;7.126;2023-05-10T06:46:21;15.48;;;9.57;;
9140;SDS011;46330;50.822;7.126;2023-05-10T06:48:49;18.00;;;10.25;;
9140;SDS011;46330;50.822;7.126;2023-05-10T06:51:18;14.70;;;10.50;;
9140;SDS011;46330;50.822;7.126;2023-05-10T06:53:47;16.42;;;10.07;;
9140;SDS011;46330;50.822;7.126;2023-05-10T06:56:15;16.08;;;9.95;;
9140;SDS011;46330;50.822;7.126;2023-05-10T06:58:43;14.77;;;9.73;;
9140;SDS011;46330;50.822;7.126;2023-05-10T07:01:11;17.00;;;10.27;;
9140;SDS011;46330;50.822;7.126;2023-05-10T07:03:40;16.30;;;10.80;;
9140;SDS011;46330;50.822;7.126;2023-05-10T07:06:08;15.73;;;10.18;;
9140;SDS011;46330;50.822;7.126;2023-05-10T07:08:56;16.17;;;10.43;;
9140;SDS011;46330;50.822;7.126;2023-05-10T07:11:24;16.92;;;9.93;;
9140;SDS011;46330;50.822;7.126;2023-05-10T07:13:52;13.77;;;9.15;;
9140;SDS011;46330;50.822;7.126;2023-05-10T07:16:20;15.27;;;9.13;;
9140;SDS011;46330;50.822;7.126;2023-05-10T07:18:49;16.17;;;9.05;;
9140;SDS011;46330;50.822;7.126;2023-05-10T07:21:19;14.25;;;9.18;;
9140;SDS011;46330;50.822;7.126;2023-05-10T07:23:47;14.23;;;8.80;;
9140;SDS011;46330;50.822;7.126;2023-05-10T07:26:15;12.43;;;6.90;;
9140;SDS011;46330;50.822;7.126;2023-05-10T07:28:43;11.63;;;7.28;;
9140;SDS011;46330;50.822;7.126;2023-05-10T07:31:11;11.27;;;7.03;;
9140;SDS011;46330;50.822;7.126;2023-05-10T07:33:39;14.10;;;7.80;;
9140;SDS011;46330;50.822;7.126;2023-05-10T07:36:08;11.25;;;7.90;;
9140;SDS011;46330;50.822;7.126;2023-05-10T07:38:36;12.63;;;8.30;;
9140;SDS011;46330;50.822;7.126;2023-05-10T07:41:06;11.68;;;7.45;;
9140;SDS011;46330;50.822;7.126;2023-05-10T07:43:34;15.15;;;7.72;;
9140;SDS011;46330;50.822;7.126;2023-05-10T07:46:02;12.82;;;6.65;;
9140;SDS011;46330;50.822;7.126;2023-05-10T07:48:30;11.23;;;6.68;;
9140;SDS011;46330;50.822;7.126;2023-05-10T07:50:58;15.80;;;7.15;;
9140;SDS011;46330;50.822;7.126;2023-05-10T07:53:27;10.73;;;7.00;;
9140;SDS011;46330;50.822;7.126;2023-05-10T07:55:57;11.02;;;6.60;;
9140;SDS011;46330;50.822;7.126;2023-05-10T07:58:25;11.93;;;7.45;;
9140;SDS011;46330;50.822;7.126;2023-05-10T08:00:53;13.88;;;7.30;;
9140;SDS011;46330;50.822;7.126;2023-05-10T08:03:22;12.73;;;7.30;;
9140;SDS011;46330;50.822;7.126;2023-05-10T08:05:50;14.38;;;8.63;;
9140;SDS011;46330;50.822;7.126;2023-05-10T08:08:18;20.95;;;11.80;;
9140;SDS011;46330;50.822;7.126;2023-05-10T08:10:49;13.40;;;6.97;;
9140;SDS011;46330;50.822;7.126;2023-05-10T08:13:17;12.23;;;7.18;;
9140;SDS011;46330;50.822;7.126;2023-05-10T08:15:45;10.30;;;5.75;;
9140;SDS011;46330;50.822;7.126;2023-05-10T08:18:13;10.38;;;5.10;;
9140;SDS011;46330;50.822;7.126;2023-05-10T08:20:41;7.55;;;4.60;;
9140;SDS011;46330;50.822;7.126;2023-05-10T08:23:09;8.68;;;4.38;;
9140;SDS011;46330;50.822;7.126;2023-05-10T08:25:37;5.90;;;3.78;;
9140;SDS011;46330;50.822;7.126;2023-05-10T08:28:06;7.93;;;4.00;;
9140;SDS011;46330;50.822;7.126;2023-05-10T08:30:37;7.68;;;4.28;;
9140;SDS011;46330;50.822;7.126;2023-05-10T08:33:05;7.65;;;3.95;;
9140;SDS011;46330;50.822;7.126;2023-05-10T08:35:33;5.60;;;3.60;;
9140;SDS011;46330;50.822;7.126;2023-05-10T08:38:01;7.38;;;3.90;;
9140;SDS011;46330;50.822;7.126;2023-05-10T08:40:29;6.13;;;3.67;;
9140;SDS011;46330;50.822;7.126;2023-05-10T08:42:58;7.85;;;4.07;;
9140;SDS011;46330;50.822;7.126;2023-05-10T08:45:33;6.68;;;3.80;;
9140;SDS011;46330;50.822;7.126;2023-05-10T08:48:05;8.68;;;3.33;;
9140;SDS011;46330;50.822;7.126;2023-05-10T08:50:35;8.13;;;5.40;;
9140;SDS011;46330;50.822;7.126;2023-05-10T08:53:04;4.57;;;3.00;;
9140;SDS011;46330;50.822;7.126;2023-05-10T08:55:34;5.10;;;3.40;;
9140;SDS011;46330;50.822;7.126;2023-05-10T08:58:03;6.53;;;3.03;;
9140;SDS011;46330;50.822;7.126;2023-05-10T09:00:32;4.03;;;2.63;;
9140;SDS011;46330;50.822;7.126;2023-05-10T09:03:02;5.82;;;2.75;;
9140;SDS011;46330;50.822;7.126;2023-05-10T09:05:31;7.38;;;3.10;;
9140;SDS011;46330;50.822;7.126;2023-05-10T09:07:59;4.68;;;2.50;;
9140;SDS011;46330;50.822;7.126;2023-05-10T09:10:27;4.53;;;2.95;;
9140;SDS011;46330;50.822;7.126;2023-05-10T09:12:57;6.53;;;3.85;;
9140;SDS011;46330;50.822;7.126;2023-05-10T09:15:25;6.00;;;3.55;;
9140;SDS011;46330;50.822;7.126;2023-05-10T09:17:55;5.57;;;2.97;;
9140;SDS011;46330;50.822;7.126;2023-05-10T09:20:24;8.25;;;3.13;;
9140;SDS011;46330;50.822;7.126;2023-05-10T09:22:52;8.27;;;2.33;;
9140;SDS011;46330;50.822;7.126;2023-05-10T09:25:20;8.98;;;2.65;;
9140;SDS011;46330;50.822;7.126;2023-05-10T09:27:49;9.05;;;3.03;;
9140;SDS011;46330;50.822;7.126;2023-05-10T09:30:17;6.65;;;2.17;;
9140;SDS011;46330;50.822;7.126;2023-05-10T09:32:50;1.98;;;1.20;;
9140;SDS011;46330;50.822;7.126;2023-05-10T09:35:20;11.82;;;2.65;;
9140;SDS011;46330;50.822;7.126;2023-05-10T09:37:53;2.05;;;1.30;;
9140;SDS011;46330;50.822;7.126;2023-05-10T09:40:23;6.85;;;2.60;;
9140;SDS011;46330;50.822;7.126;2023-05-10T09:42:52;1.52;;;1.20;;
9140;SDS011;46330;50.822;7.126;2023-05-10T09:45:22;1.23;;;1.10;;
9140;SDS011;46330;50.822;7.126;2023-05-10T09:47:51;4.00;;;1.38;;
9140;SDS011;46330;50.822;7.126;2023-05-10T09:50:20;1.67;;;1.08;;
9140;SDS011;46330;50.822;7.126;2023-05-10T09:52:50;1.58;;;1.20;;
9140;SDS011;46330;50.822;7.126;2023-05-10T09:55:20;1.38;;;1.27;;
9140;SDS011;46330;50.822;7.126;2023-05-10T09:57:49;2.35;;;1.40;;
9140;SDS011;46330;50.822;7.126;2023-05-10T10:00:27;2.45;;;1.67;;
9140;SDS011;46330;50.822;7.126;2023-05-10T10:02:56;2.03;;;1.75;;
9140;SDS011;46330;50.822;7.126;2023-05-10T10:05:29;2.17;;;1.83;;
9140;SDS011;46330;50.822;7.126;2023-05-10T10:07:57;6.63;;;3.33;;
9140;SDS011;46330;50.822;7.126;2023-05-10T10:10:26;4.20;;;3.17;;
9140;SDS011;46330;50.822;7.126;2023-05-10T10:12:55;5.25;;;3.50;;
9140;SDS011;46330;50.822;7.126;2023-05-10T10:15:23;10.25;;;5.32;;
9140;SDS011;46330;50.822;7.126;2023-05-10T10:17:51;9.43;;;5.68;;
9140;SDS011;46330;50.822;7.126;2023-05-10T10:20:21;11.98;;;6.45;;
9140;SDS011;46330;50.822;7.126;2023-05-10T10:22:53;16.30;;;10.50;;
9140;SDS011;46330;50.822;7.126;2023-05-10T10:25:21;11.60;;;7.38;;
9140;SDS011;46330;50.822;7.126;2023-05-10T10:27:56;12.73;;;7.10;;
9140;SDS011;46330;50.822;7.126;2023-05-10T10:30:37;12.32;;;6.97;;
9140;SDS011;46330;50.822;7.126;2023-05-10T10:33:24;11.65;;;6.80;;
9140;SDS011;46330;50.822;7.126;2023-05-10T10:36:01;10.38;;;6.88;;
9140;SDS011;46330;50.822;7.126;2023-05-10T10:38:41;9.57;;;6.22;;
9140;SDS011;46330;50.822;7.126;2023-05-10T10:47:05;8.88;;;5.55;;
9140;SDS011;46330;50.822;7.126;2023-05-10T10:49:38;10.05;;;6.00;;
9140;SDS011;46330;50.822;7.126;2023-05-10T10:52:14;8.85;;;5.30;;
9140;SDS011;46330;50.822;7.126;2023-05-10T10:54:48;9.90;;;6.32;;
9140;SDS011;46330;50.822;7.126;2023-05-10T10:57:18;9.95;;;5.53;;
9140;SDS011;46330;50.822;7.126;2023-05-10T10:59:48;10.23;;;5.93;;
9140;SDS011;46330;50.822;7.126;2023-05-10T11:02:32;9.93;;;6.38;;
9140;SDS011;46330;50.822;7.126;2023-05-10T11:07:51;10.15;;;5.93;;
9140;SDS011;46330;50.822;7.126;2023-05-10T11:10:20;10.10;;;6.32;;
9140;SDS011;46330;50.822;7.126;2023-05-10T11:12:52;8.55;;;4.53;;
9140;SDS011;46330;50.822;7.126;2023-05-10T11:15:28;7.07;;;4.68;;
9140;SDS011;46330;50.822;7.126;2023-05-10T11:20:26;6.30;;;3.55;;
9140;SDS011;46330;50.822;7.126;2023-05-10T11:23:10;8.52;;;4.05;;
9140;SDS011;46330;50.822;7.126;2023-05-10T11:25:43;5.20;;;3.60;;
9140;SDS011;46330;50.822;7.126;2023-05-10T11:28:12;8.30;;;3.42;;
9140;SDS011;46330;50.822;7.126;2023-05-10T11:30:41;6.80;;;3.22;;
9140;SDS011;46330;50.822;7.126;2023-05-10T11:33:14;5.82;;;3.67;;
9140;SDS011;46330;50.822;7.126;2023-05-10T11:35:43;5.55;;;3.10;;
9140;SDS011;46330;50.822;7.126;2023-05-10T11:38:11;4.68;;;2.63;;
9140;SDS011;46330;50.822;7.126;2023-05-10T11:40:41;5.45;;;2.70;;
9140;SDS011;46330;50.822;7.126;2023-05-10T11:43:10;3.05;;;1.83;;
9140;SDS011;46330;50.822;7.126;2023-05-10T11:45:39;1.63;;;1.50;;
9140;SDS011;46330;50.822;7.126;2023-05-10T11:48:08;3.72;;;1.50;;
9140;SDS011;46330;50.822;7.126;2023-05-10T11:50:36;1.48;;;1.30;;
9140;SDS011;46330;50.822;7.126;2023-05-10T11:53:04;3.67;;;2.10;;
9140;SDS011;46330;50.822;7.126;2023-05-10T11:55:33;2.20;;;1.58;;
9140;SDS011;46330;50.822;7.126;2023-05-10T11:58:01;3.03;;;1.55;;
9140;SDS011;46330;50.822;7.126;2023-05-10T12:00:31;2.60;;;1.95;;
9140;SDS011;46330;50.822;7.126;2023-05-10T12:03:00;2.55;;;1.90;;
9140;SDS011;46330;50.822;7.126;2023-05-10T12:05:31;2.20;;;2.00;;
9140;SDS011;46330;50.822;7.126;2023-05-10T12:08:13;2.90;;;1.80;;
9140;SDS011;46330;50.822;7.126;2023-05-10T12:10:41;2.10;;;1.90;;
9140;SDS011;46330;50.822;7.126;2023-05-10T12:13:12;2.15;;;1.92;;
9140;SDS011;46330;50.822;7.126;2023-05-10T12:15:43;4.38;;;2.17;;
9140;SDS011;46330;50.822;7.126;2023-05-10T12:18:11;2.97;;;2.05;;
9140;SDS011;46330;50.822;7.126;2023-05-10T12:20:40;2.20;;;1.98;;
9140;SDS011;46330;50.822;7.126;2023-05-10T12:23:09;2.90;;;2.10;;
9140;SDS011;46330;50.822;7.126;2023-05-10T12:25:37;2.92;;;2.05;;
9140;SDS011;46330;50.822;7.126;2023-05-10T12:28:06;2.78;;;2.47;;
9140;SDS011;46330;50.822;7.126;2023-05-10T12:30:35;4.68;;;2.28;;
9140;SDS011;46330;50.822;7.126;2023-05-10T12:33:09;3.58;;;2.50;;
9140;SDS011;46330;50.822;7.126;2023-05-10T12:35:44;3.00;;;2.22;;
9140;SDS011;46330;50.822;7.126;2023-05-10T12:38:24;3.90;;;2.20;;
9140;SDS011;46330;50.822;7.126;2023-05-10T12:40:52;3.30;;;2.03;;
9140;SDS011;46330;50.822;7.126;2023-05-10T12:43:20;2.65;;;1.77;;
9140;SDS011;46330;50.822;7.126;2023-05-10T12:45:48;1.75;;;1.65;;
9140;SDS011;46330;50.822;7.126;2023-05-10T12:48:18;3.80;;;2.40;;
9140;SDS011;46330;50.822;7.126;2023-05-10T12:50:46;2.85;;;2.03;;
9140;SDS011;46330;50.822;7.126;2023-05-10T12:53:14;3.08;;;1.88;;
9140;SDS011;46330;50.822;7.126;2023-05-10T12:55:42;3.97;;;2.08;;
9140;SDS011;46330;50.822;7.126;2023-05-10T12:58:11;4.28;;;2.22;;
9140;SDS011;46330;50.822;7.126;2023-05-10T13:00:53;4.80;;;2.00;;
9140;SDS011;46330;50.822;7.126;2023-05-10T13:03:24;4.78;;;1.90;;
9140;SDS011;46330;50.822;7.126;2023-05-10T13:05:52;1.70;;;1.48;;
9140;SDS011;46330;50.822;7.126;2023-05-10T13:08:20;2.75;;;1.85;;
9140;SDS011;46330;50.822;7.126;2023-05-10T13:10:47;3.30;;;1.92;;
9140;SDS011;46330;50.822;7.126;2023-05-10T13:13:16;2.90;;;2.00;;
9140;SDS011;46330;50.822;7.126;2023-05-10T13:15:44;1.83;;;1.50;;
9140;SDS011;46330;50.822;7.126;2023-05-10T13:18:12;2.35;;;1.52;;
9140;SDS011;46330;50.822;7.126;2023-05-10T13:20:41;2.45;;;1.45;;
9140;SDS011;46330;50.822;7.126;2023-05-10T13:23:10;1.15;;;1.08;;
9140;SDS011;46330;50.822;7.126;2023-05-10T13:25:38;3.97;;;1.20;;
9140;SDS011;46330;50.822;7.126;2023-05-10T13:28:06;1.00;;;1.00;;
9140;SDS011;46330;50.822;7.126;2023-05-10T13:30:34;2.08;;;1.13;;
9140;SDS011;46330;50.822;7.126;2023-05-10T13:33:02;1.00;;;1.00;;
9140;SDS011;46330;50.822;7.126;2023-05-10T13:35:30;2.63;;;1.20;;
9140;SDS011;46330;50.822;7.126;2023-05-10T13:37:59;2.75;;;1.13;;
9140;SDS011;46330;50.822;7.126;2023-05-10T13:40:27;1.40;;;1.30;;
9140;SDS011;46330;50.822;7.126;2023-05-10T13:42:55;2.22;;;1.15;;
9140;SDS011;46330;50.822;7.126;2023-05-10T13:45:23;2.67;;;1.08;;
9140;SDS011;46330;50.822;7.126;2023-05-10T13:47:51;3.33;;;1.17;;
9140;SDS011;46330;50.822;7.126;2023-05-10T13:50:19;3.75;;;1.50;;
9140;SDS011;46330;50.822;7.126;2023-05-10T13:52:47;2.08;;;1.40;;
9140;SDS011;46330;50.822;7.126;2023-05-10T13:55:17;1.33;;;1.10;;
9140;SDS011;46330;50.822;7.126;2023-05-10T13:57:45;0.80;;;0.80;;
9140;SDS011;46330;50.822;7.126;2023-05-10T14:00:14;1.15;;;1.02;;
9140;SDS011;46330;50.822;7.126;2023-05-10T14:02:42;1.52;;;1.02;;
9140;SDS011;46330;50.822;7.126;2023-05-10T14:05:10;2.17;;;0.80;;
9140;SDS011;46330;50.822;7.126;2023-05-10T14:07:39;2.40;;;1.20;;
9140;SDS011;46330;50.822;7.126;2023-05-10T14:10:07;2.65;;;1.90;;
9140;SDS011;46330;50.822;7.126;2023-05-10T14:12:37;6.82;;;3.50;;
9140;SDS011;46330;50.822;7.126;2023-05-10T14:15:05;2.13;;;1.40;;
9140;SDS011;46330;50.822;7.126;2023-05-10T14:17:36;2.90;;;1.30;;
9140;SDS011;46330;50.822;7.126;2023-05-10T14:20:05;1.38;;;1.00;;
9140;SDS011;46330;50.822;7.126;2023-05-10T14:22:34;0.85;;;0.85;;
9140;SDS011;46330;50.822;7.126;2023-05-10T14:25:02;2.38;;;0.80;;
9140;SDS011;46330;50.822;7.126;2023-05-10T14:27:30;1.30;;;0.98;;
9140;SDS011;46330;50.822;7.126;2023-05-10T14:30:00;2.05;;;1.00;;
9140;SDS011;46330;50.822;7.126;2023-05-10T14:32:28;1.02;;;0.93;;
9140;SDS011;46330;50.822;7.126;2023-05-10T14:34:58;1.20;;;1.10;;
9140;SDS011;46330;50.822;7.126;2023-05-10T14:37:26;1.10;;;0.98;;
9140;SDS011;46330;50.822;7.126;2023-05-10T14:39:54;2.45;;;1.30;;
9140;SDS011;46330;50.822;7.126;2023-05-10T14:42:22;3.20;;;1.17;;
9140;SDS011;46330;50.822;7.126;2023-05-10T14:44:50;1.92;;;1.20;;
9140;SDS011;46330;50.822;7.126;2023-05-10T14:47:19;2.17;;;1.10;;
9140;SDS011;46330;50.822;7.126;2023-05-10T14:49:47;4.22;;;1.35;;
9140;SDS011;46330;50.822;7.126;2023-05-10T14:52:15;4.63;;;2.50;;
9140;SDS011;46330;50.822;7.126;2023-05-10T14:54:43;3.70;;;1.50;;
9140;SDS011;46330;50.822;7.126;2023-05-10T14:57:11;2.42;;;1.20;;
9140;SDS011;46330;50.822;7.126;2023-05-10T14:59:39;1.23;;;1.10;;
9140;SDS011;46330;50.822;7.126;2023-05-10T15:02:08;1.02;;;1.00;;
9140;SDS011;46330;50.822;7.126;2023-05-10T15:04:38;4.45;;;1.20;;
9140;SDS011;46330;50.822;7.126;2023-05-10T15:07:07;2.47;;;1.00;;
9140;SDS011;46330;50.822;7.126;2023-05-10T15:09:35;1.10;;;1.00;;
9140;SDS011;46330;50.822;7.126;2023-05-10T15:12:05;2.95;;;1.20;;
9140;SDS011;46330;50.822;7.126;2023-05-10T15:14:34;2.10;;;1.35;;
9140;SDS011;46330;50.822;7.126;2023-05-10T15:17:02;2.00;;;1.02;;
9140;SDS011;46330;50.822;7.126;2023-05-10T15:19:30;3.83;;;1.10;;